Airfield :
LOGIN :

Register | Disclaimer

   EN    FR    IT 

 










Legend :    VFR   Marginal VFR   IFR   Intensive IFR   Very Intensive IFR
Visi :
Ceiling :
>= 8 km
>= 3000ft
5 to 8 km
1000 to 3000 ft
1500m to 5 km
500 to 1000 ft
800 to 1500m
200 to 500 ft
< 800m
< 200 ft
Symbols :   Thunderstorms  Fog  Heavy snow  Heavy precipitations  Wind > 20 kt
SIGMETs :     Misc.  Thunderstorms  Icing  Turbulence  Mountain Waves  Volcanic Ashes







- Airport Elevation : 112 ft
- IATA code : SVQ


LEZL - Sevilla San Pablo

CURRENT METAR :
  • 221230Z VRB01KT CAVOK 21/03 Q1016 NOSIG

EXPIRED METARs :
  • 221200Z 02001KT CAVOK 20/03 Q1016 NOSIG
  • 221130Z 00000KT CAVOK 20/03 Q1017 NOSIG
  • 221100Z VRB02KT CAVOK 19/04 Q1017 NOSIG
  • 221030Z 07004KT 050V110 CAVOK 17/03 Q1017 NOSIG
  • 221000Z 07008KT CAVOK 15/03 Q1017 NOSIG

TAF TAF LEZL
Valid from the 22 at 09:00 until the 23 at 09:00 UTC


220800Z 2209/2309 04004KT CAVOK TX23/2215Z TN06/2306Z
PROB30
TEMPO 2222/2308 BKN010
No reported NOTAMs for that airfield.
3 SIGMETs reported for the Madrid FIR (LECM) :
 
Embedded thunderstorms
LECM SIGMET 8 VALID 221200/221400 LEVA
LECM MADRID FIR/UIR EMBD TS OBS AT 1146Z WI N4440 W00640 - N42 W00940 - N4230 W01140 - N4310 W013 - N4450 W01250 - N4450 W00750 - N4440 W00640 TOP FL380 MOV E NC=
Severe turbulence
LECM SIGMET 7 VALID 221200/221500 LEVA
LECM MADRID FIR/UIR SEV TURB FCST W OF LINE N44 W010 - N42 W010 FL230/290 MOV NE 40 KT WKN=
Severe turbulence
LECM SIGMET 6 VALID 221000/221400 LEVA
LECM MADRID FIR SEV TURB FCST W OF LINE N45 W00720 - N4220 W010 SFC/FL060-070 MOV E 30KT NC=



MET'MAP, your aeronautical weather chart ! - Copyright ORBIFLY December 2007 - Disclaimer

ORBIFLY MET'MAP TEAM :

Programming & Development : Alexandra Zaïnal
Concept & Development : Baudouin d'Aumeries
Co-Development & Prog : Marc-Olivier Méhu
Technical & hardware support : Manuel Goepfert

Contact : metmap@orbifly.com




SOURCES & CREDITS :

   NOAA